createdAt,value
2022-09-14T00:01:25.908Z,18.50
2022-09-14T00:05:28.050Z,18.50
2022-09-14T00:09:29.655Z,18.50
2022-09-14T00:13:31.557Z,18.50
2022-09-14T00:17:33.749Z,18.50
2022-09-14T00:21:36.237Z,18.40
2022-09-14T00:25:37.813Z,18.40
2022-09-14T00:29:39.403Z,18.40
2022-09-14T00:33:42.219Z,18.40
2022-09-14T00:37:43.783Z,18.40
2022-09-14T00:41:46.556Z,18.30
2022-09-14T00:45:48.099Z,18.30
2022-09-14T00:49:49.685Z,18.30
2022-09-14T00:53:51.344Z,18.30
2022-09-14T00:57:53.697Z,18.20
2022-09-14T01:01:55.386Z,18.20
2022-09-14T01:06:04.720Z,18.30
2022-09-14T01:10:27.072Z,18.30
2022-09-14T01:14:40.886Z,18.30
2022-09-14T01:18:42.409Z,18.20
2022-09-14T01:23:05.481Z,18.20
2022-09-14T01:27:12.538Z,18.20
2022-09-14T01:31:18.515Z,18.20
2022-09-14T01:35:20.195Z,18.20
2022-09-14T01:39:22.599Z,18.10
2022-09-14T01:43:26.416Z,18.10
2022-09-14T01:47:33.946Z,18.20
2022-09-14T01:51:38.825Z,18.30
2022-09-14T01:55:43.853Z,18.30
2022-09-14T01:59:46.498Z,18.20
2022-09-14T02:03:49.766Z,18.20
2022-09-14T02:07:52.116Z,18.20
2022-09-14T02:11:55.164Z,18.20
2022-09-14T02:15:56.857Z,18.20
2022-09-14T02:19:59.860Z,18.10
2022-09-14T02:24:01.703Z,18.00
2022-09-14T02:28:04.160Z,18.10
2022-09-14T02:32:19.294Z,18.10
2022-09-14T02:36:28.309Z,18.10
2022-09-14T02:40:29.868Z,18.10
2022-09-14T02:44:31.420Z,18.10
2022-09-14T02:48:43.515Z,18.10
2022-09-14T02:52:56.640Z,18.00
2022-09-14T02:57:02.128Z,18.00
2022-09-14T03:01:04.418Z,18.00
2022-09-14T03:05:06.167Z,18.00
2022-09-14T03:09:07.739Z,18.00
2022-09-14T03:13:09.323Z,18.10
2022-09-14T03:17:10.877Z,18.00
2022-09-14T03:21:13.527Z,17.90
2022-09-14T03:25:15.478Z,17.90
2022-09-14T03:29:17.008Z,18.10
2022-09-14T03:33:18.547Z,18.10
2022-09-14T03:37:20.133Z,18.10
2022-09-14T03:41:22.600Z,18.00
2022-09-14T03:45:24.198Z,17.90
2022-09-14T03:49:25.724Z,17.90
2022-09-14T03:53:27.754Z,18.00
2022-09-14T03:57:29.309Z,18.00
2022-09-14T04:01:32.788Z,18.10
2022-09-14T04:05:34.572Z,18.10
2022-09-14T04:09:36.165Z,18.10
2022-09-14T04:13:37.978Z,18.00
2022-09-14T04:17:40.432Z,18.10
2022-09-14T04:21:42.034Z,18.10
2022-09-14T04:25:43.584Z,18.10
2022-09-14T04:29:45.325Z,17.90
2022-09-14T04:33:49.218Z,17.90
2022-09-14T04:37:50.842Z,18.00
2022-09-14T04:41:52.376Z,18.00
2022-09-14T04:45:54.099Z,18.00
2022-09-14T04:49:55.659Z,18.00
2022-09-14T04:53:59.031Z,17.90
2022-09-14T04:58:00.572Z,17.90
2022-09-14T05:02:02.208Z,18.00
2022-09-14T05:06:08.675Z,17.90
2022-09-14T05:10:11.454Z,17.80
2022-09-14T05:14:13.446Z,17.80
2022-09-14T05:18:14.961Z,17.80
2022-09-14T05:22:16.493Z,17.80
2022-09-14T05:26:18.004Z,17.70
2022-09-14T05:30:19.631Z,17.70
2022-09-14T05:34:21.257Z,17.80
2022-09-14T05:38:22.812Z,17.80
2022-09-14T05:42:24.390Z,17.70
2022-09-14T05:46:26.056Z,17.70
2022-09-14T05:50:27.786Z,17.60
2022-09-14T05:54:29.632Z,17.60
2022-09-14T05:58:31.337Z,17.60
2022-09-14T06:02:33.113Z,17.60
2022-09-14T06:06:34.683Z,17.70
2022-09-14T06:10:36.238Z,17.70
2022-09-14T06:14:37.867Z,17.80
2022-09-14T06:18:40.288Z,17.60
2022-09-14T06:22:41.852Z,17.60
2022-09-14T06:26:43.483Z,17.60
2022-09-14T06:30:45.072Z,17.50
2022-09-14T06:34:46.690Z,17.60
2022-09-14T06:38:49.751Z,17.60
2022-09-14T06:42:51.383Z,17.50
2022-09-14T06:46:52.943Z,17.60
2022-09-14T06:50:54.543Z,17.50
2022-09-14T06:54:56.285Z,17.60
2022-09-14T06:58:58.478Z,17.60
2022-09-14T07:03:00.033Z,17.70
2022-09-14T07:07:01.614Z,17.70
2022-09-14T07:11:03.634Z,17.60
2022-09-14T07:15:06.748Z,17.70
2022-09-14T07:19:10.825Z,17.70
2022-09-14T07:23:13.456Z,17.80
2022-09-14T07:27:15.109Z,17.70
2022-09-14T07:31:36.931Z,17.80
2022-09-14T07:35:38.521Z,17.90
2022-09-14T07:39:40.051Z,17.70
2022-09-14T07:43:41.609Z,17.80
2022-09-14T07:47:43.242Z,17.90
2022-09-14T07:51:44.888Z,17.60
2022-09-14T07:55:46.683Z,17.30
2022-09-14T07:59:48.265Z,17.20
2022-09-14T08:03:50.063Z,17.10
2022-09-14T08:07:55.581Z,17.10
2022-09-14T08:11:57.772Z,17.10
2022-09-14T08:16:00.861Z,17.00
2022-09-14T08:20:03.012Z,17.00
2022-09-14T08:24:04.623Z,16.80
2022-09-14T08:28:06.140Z,16.90
2022-09-14T08:32:07.751Z,16.80
2022-09-14T08:36:10.186Z,16.90
2022-09-14T08:40:13.426Z,16.80
2022-09-14T08:44:18.085Z,17.00
2022-09-14T08:48:23.792Z,16.90
2022-09-14T08:52:33.984Z,16.90
2022-09-14T08:56:39.781Z,16.90
2022-09-14T09:00:57.353Z,16.80
2022-09-14T09:05:20.609Z,16.70
2022-09-14T09:09:22.294Z,16.60
2022-09-14T09:13:26.489Z,16.80
2022-09-14T09:17:31.057Z,16.70
2022-09-14T09:21:35.458Z,16.70
2022-09-14T09:25:57.385Z,16.80
2022-09-14T09:29:58.978Z,16.60
2022-09-14T09:34:00.844Z,16.80
2022-09-14T09:38:02.504Z,16.80
2022-09-14T09:42:08.260Z,16.90
2022-09-14T09:46:11.573Z,16.80
2022-09-14T09:50:13.487Z,16.90
2022-09-14T09:54:15.301Z,17.00
2022-09-14T09:58:27.283Z,16.90
2022-09-14T10:02:30.480Z,17.10
2022-09-14T10:06:40.292Z,17.00
2022-09-14T10:10:43.065Z,17.00
2022-09-14T10:14:46.891Z,17.00
2022-09-14T10:18:49.572Z,17.00
2022-09-14T10:22:51.200Z,17.00
2022-09-14T10:26:52.763Z,17.00
2022-09-14T10:31:13.356Z,17.00
2022-09-14T10:35:15.572Z,17.00
2022-09-14T10:39:17.110Z,17.10
2022-09-14T10:43:28.271Z,17.00
2022-09-14T10:47:32.870Z,17.00
2022-09-14T10:51:45.247Z,16.90
2022-09-14T10:55:56.272Z,17.10
2022-09-14T11:00:12.884Z,17.10
2022-09-14T11:04:26.530Z,17.20
2022-09-14T11:08:48.330Z,17.20
2022-09-14T11:13:04.620Z,17.30
2022-09-14T11:17:16.860Z,17.10
2022-09-14T11:21:21.413Z,17.00
2022-09-14T11:25:45.031Z,16.90
2022-09-14T11:29:49.472Z,17.10
2022-09-14T11:34:07.228Z,17.20
2022-09-14T11:38:12.569Z,17.40
2022-09-14T11:42:17.874Z,17.20
2022-09-14T11:46:22.124Z,17.20
2022-09-14T11:50:28.169Z,17.30
2022-09-14T11:54:29.852Z,17.50
2022-09-14T11:58:31.454Z,17.30
2022-09-14T12:02:33.032Z,17.30
2022-09-14T12:06:37.657Z,17.40
2022-09-14T12:10:58.719Z,17.20
2022-09-14T12:15:01.211Z,17.10
2022-09-14T12:19:03.510Z,17.50
2022-09-14T12:23:05.061Z,17.60
2022-09-14T12:27:21.572Z,17.30
2022-09-14T12:31:32.730Z,17.30
2022-09-14T12:35:34.295Z,17.10
2022-09-14T12:39:35.947Z,17.10
2022-09-14T12:43:37.734Z,17.00
2022-09-14T12:47:39.535Z,16.90
2022-09-14T12:51:48.146Z,16.80
2022-09-14T12:55:54.424Z,16.90
2022-09-14T13:00:08.138Z,16.90
2022-09-14T13:04:14.260Z,16.80
2022-09-14T13:08:19.353Z,16.70
2022-09-14T13:12:27.580Z,16.70
2022-09-14T13:16:39.036Z,16.70
2022-09-14T13:20:49.021Z,16.60
2022-09-14T13:24:51.299Z,16.40
2022-09-14T13:28:53.933Z,16.50
2022-09-14T13:32:56.528Z,16.40
2022-09-14T13:36:58.343Z,16.40
2022-09-14T13:41:07.802Z,16.40
2022-09-14T13:45:12.410Z,16.50
2022-09-14T13:49:14.064Z,16.60
2022-09-14T13:53:34.378Z,16.50
2022-09-14T13:57:35.983Z,16.50
2022-09-14T14:01:41.769Z,16.50
2022-09-14T14:05:43.628Z,16.30
2022-09-14T14:09:45.266Z,16.30
2022-09-14T14:13:46.869Z,16.20
2022-09-14T14:17:48.395Z,16.30
2022-09-14T14:21:49.959Z,16.10
2022-09-14T14:25:54.491Z,16.10
2022-09-14T14:29:56.625Z,16.20
2022-09-14T14:33:58.859Z,16.10
2022-09-14T14:38:00.434Z,16.00
2022-09-14T14:42:02.233Z,16.00
2022-09-14T14:46:06.237Z,16.10
2022-09-14T14:50:18.221Z,16.00
2022-09-14T14:54:19.917Z,15.90
2022-09-14T14:58:21.778Z,16.00
2022-09-14T15:02:23.313Z,15.90
2022-09-14T15:06:26.979Z,16.00
2022-09-14T15:10:29.245Z,16.00
2022-09-14T15:14:30.813Z,15.90
2022-09-14T15:18:32.365Z,16.00
2022-09-14T15:22:33.900Z,16.00
2022-09-14T15:26:35.884Z,16.10
2022-09-14T15:30:37.464Z,16.00
2022-09-14T15:34:39.083Z,16.00
2022-09-14T15:38:40.687Z,16.10
2022-09-14T15:42:42.325Z,16.20
2022-09-14T15:46:45.173Z,16.30
2022-09-14T15:50:48.444Z,16.30
2022-09-14T15:54:50.021Z,16.40
2022-09-14T15:58:51.656Z,16.30
2022-09-14T16:02:53.324Z,16.30
2022-09-14T16:06:54.857Z,16.50
2022-09-14T16:10:57.449Z,16.30
2022-09-14T16:14:58.993Z,16.40
2022-09-14T16:19:04.779Z,16.40
2022-09-14T16:23:06.441Z,16.30
2022-09-14T16:27:07.972Z,16.40
2022-09-14T16:31:10.923Z,16.50
2022-09-14T16:35:12.512Z,16.30
2022-09-14T16:39:15.095Z,16.30
2022-09-14T16:43:16.605Z,16.30
2022-09-14T16:47:18.321Z,16.30
2022-09-14T16:51:21.229Z,16.10
2022-09-14T16:55:22.770Z,16.20
2022-09-14T16:59:24.439Z,16.20
2022-09-14T17:03:31.082Z,16.30
2022-09-14T17:07:33.682Z,16.20
2022-09-14T17:11:36.837Z,16.10
2022-09-14T17:15:38.396Z,16.00
2022-09-14T17:19:43.513Z,15.90
2022-09-14T17:23:45.733Z,15.90
2022-09-14T17:27:49.248Z,15.70
2022-09-14T17:31:50.990Z,15.60
2022-09-14T17:35:53.696Z,15.60
2022-09-14T17:39:55.276Z,15.60
2022-09-14T17:43:58.336Z,15.60
2022-09-14T17:47:59.927Z,15.50
2022-09-14T17:52:01.961Z,15.40
2022-09-14T17:56:04.150Z,15.50
2022-09-14T18:00:06.381Z,15.40
2022-09-14T18:04:10.181Z,15.40
2022-09-14T18:08:11.793Z,15.20
2022-09-14T18:12:15.757Z,15.30
2022-09-14T18:16:18.953Z,15.20
2022-09-14T18:20:20.584Z,15.20
2022-09-14T18:24:22.270Z,15.20
2022-09-14T18:28:24.099Z,15.10
2022-09-14T18:32:25.682Z,15.20
2022-09-14T18:36:29.391Z,15.10
2022-09-14T18:40:32.830Z,15.10
2022-09-14T18:44:34.425Z,15.00
2022-09-14T18:48:36.033Z,14.90
2022-09-14T18:52:37.769Z,14.90
2022-09-14T18:56:39.749Z,14.90
2022-09-14T19:00:44.957Z,14.80
2022-09-14T19:04:47.316Z,14.90
2022-09-14T19:08:49.251Z,14.80
2022-09-14T19:12:50.859Z,14.80
2022-09-14T19:16:56.824Z,14.70
2022-09-14T19:21:06.847Z,14.70
2022-09-14T19:25:08.790Z,14.70
2022-09-14T19:29:10.713Z,14.80
2022-09-14T19:33:12.359Z,14.80
2022-09-14T19:37:13.903Z,14.60
2022-09-14T19:41:16.028Z,14.60
2022-09-14T19:45:17.945Z,14.60
2022-09-14T19:49:20.797Z,14.40
2022-09-14T19:53:22.443Z,14.40
2022-09-14T19:57:24.000Z,14.40
2022-09-14T20:01:27.338Z,14.40
2022-09-14T20:05:29.272Z,14.40
2022-09-14T20:09:31.267Z,14.50
2022-09-14T20:13:33.285Z,14.40
2022-09-14T20:17:34.891Z,14.50
2022-09-14T20:21:37.370Z,14.40
2022-09-14T20:25:39.034Z,14.40
2022-09-14T20:29:40.577Z,14.30
2022-09-14T20:33:42.130Z,14.40
2022-09-14T20:37:43.753Z,14.40
2022-09-14T20:41:45.750Z,14.30
2022-09-14T20:45:47.399Z,14.40
2022-09-14T20:49:48.948Z,14.40
2022-09-14T20:53:50.685Z,14.40
2022-09-14T20:57:52.219Z,14.50
2022-09-14T21:01:53.847Z,14.50
2022-09-14T21:05:55.807Z,14.40
2022-09-14T21:09:57.353Z,14.40
2022-09-14T21:13:59.204Z,14.40
2022-09-14T21:18:00.914Z,14.30
2022-09-14T21:22:02.688Z,14.20
2022-09-14T21:26:05.065Z,14.10
2022-09-14T21:30:06.951Z,14.10
2022-09-14T21:34:10.233Z,13.90
2022-09-14T21:38:11.867Z,13.90
2022-09-14T21:42:13.425Z,13.90
2022-09-14T21:46:15.785Z,13.80
2022-09-14T21:50:17.609Z,14.00
2022-09-14T21:54:19.858Z,13.90
2022-09-14T21:58:21.529Z,13.80
2022-09-14T22:02:23.117Z,13.80
2022-09-14T22:06:27.314Z,13.90
2022-09-14T22:10:28.913Z,13.90
2022-09-14T22:14:30.499Z,13.90
2022-09-14T22:18:32.125Z,13.90
2022-09-14T22:22:34.226Z,13.80
2022-09-14T22:26:36.078Z,13.80
2022-09-14T22:30:43.107Z,13.80
2022-09-14T22:34:49.449Z,13.80
2022-09-14T22:38:51.570Z,13.80
2022-09-14T22:42:53.129Z,13.80
2022-09-14T22:46:54.689Z,13.80
2022-09-14T22:50:56.992Z,13.80
2022-09-14T22:54:58.514Z,13.90
2022-09-14T22:59:01.476Z,13.80
2022-09-14T23:03:03.113Z,13.70
2022-09-14T23:07:06.676Z,13.80
2022-09-14T23:11:10.678Z,13.80
2022-09-14T23:15:12.228Z,13.80
2022-09-14T23:19:15.376Z,13.80
2022-09-14T23:23:16.892Z,13.70
2022-09-14T23:27:18.400Z,13.70
2022-09-14T23:31:20.190Z,13.70
2022-09-14T23:35:22.035Z,13.60
2022-09-14T23:39:23.872Z,13.60
2022-09-14T23:43:25.399Z,13.50
2022-09-14T23:47:26.920Z,13.50
2022-09-14T23:51:28.499Z,13.50
2022-09-14T23:55:30.208Z,13.50
2022-09-14T23:59:31.726Z,13.50
